Time,TemperatureF,DewpointF,PressureIn,WindDirection,WindDirectionDegrees,WindSpeedMPH,WindSpeedGustMPH,Humidity,HourlyPrecipIn,Conditions,Clouds,dailyrainin,SolarRadiationWatts/m^2,SoftwareType,DateUTC
2013-01-21 00:05:00,18.4,11.8,30.64,ESE,121,0.0,4.0,75,0.00,,,0.00,0,Wunderground v.1.15,2013-01-21 07:05:00,
2013-01-21 00:15:00,18.4,11.8,30.63,ESE,121,0.0,0.0,75,0.00,,,0.00,0,Wunderground v.1.15,2013-01-21 07:15:00,
2013-01-21 00:25:00,18.1,11.5,30.63,ESE,121,0.0,0.0,75,0.00,,,0.00,0,Wunderground v.1.15,2013-01-21 07:25:00,
2013-01-21 00:35:00,18.0,11.7,30.63,ESE,121,0.0,0.0,76,0.00,,,0.00,0,Wunderground v.1.15,2013-01-21 07:35:00,
2013-01-21 00:45:00,17.7,11.1,30.63,ESE,122,0.0,1.0,75,0.00,,,0.00,0,Wunderground v.1.15,2013-01-21 07:45:00,
2013-01-21 00:50:00,17.7,11.1,30.63,ESE,121,0.0,0.0,75,0.00,,,0.00,0,Wunderground v.1.15,2013-01-21 07:50:00,
2013-01-21 01:00:00,17.3,10.7,30.64,ESE,121,0.0,0.0,75,0.00,,,0.00,0,Wunderground v.1.15,2013-01-21 08:00:00,
2013-01-21 01:10:00,16.9,10.0,30.64,ESE,121,0.0,0.0,74,0.00,,,0.00,0,Wunderground v.1.15,2013-01-21 08:10:00,
2013-01-21 01:20:00,17.0,10.4,30.64,ESE,121,0.0,0.0,75,0.00,,,0.00,0,Wunderground v.1.15,2013-01-21 08:20:00,
2013-01-21 01:30:00,16.4,9.9,30.64,ESE,121,0.0,0.0,75,0.00,,,0.00,0,Wunderground v.1.15,2013-01-21 08:30:00,
2013-01-21 01:40:00,16.3,10.1,30.64,ESE,122,0.0,0.0,76,0.00,,,0.00,0,Wunderground v.1.15,2013-01-21 08:40:00,
2013-01-21 01:50:00,16.2,9.7,30.64,ESE,121,0.0,0.0,75,0.00,,,0.00,0,Wunderground v.1.15,2013-01-21 08:50:00,
2013-01-21 02:00:00,15.9,9.7,30.64,ESE,122,0.0,0.0,76,0.00,,,0.00,0,Wunderground v.1.15,2013-01-21 09:00:00,
2013-01-21 02:10:00,15.8,9.6,30.64,ESE,121,0.0,0.0,76,0.00,,,0.00,0,Wunderground v.1.15,2013-01-21 09:10:00,
2013-01-21 02:20:00,15.8,9.6,30.65,ESE,121,0.0,0.0,76,0.00,,,0.00,0,Wunderground v.1.15,2013-01-21 09:20:00,
2013-01-21 02:25:00,15.8,9.6,30.65,ESE,121,0.0,0.0,76,0.00,,,0.00,0,Wunderground v.1.15,2013-01-21 09:25:00,
2013-01-21 02:30:00,15.5,9.3,30.65,ESE,121,0.0,0.0,76,0.00,,,0.00,0,Wunderground v.1.15,2013-01-21 09:30:00,
2013-01-21 02:35:00,15.3,9.1,30.65,ESE,122,0.0,0.0,76,0.00,,,0.00,0,Wunderground v.1.15,2013-01-21 09:35:00,
2013-01-21 02:45:00,14.8,8.6,30.65,ESE,122,0.0,0.0,76,0.00,,,0.00,0,Wunderground v.1.15,2013-01-21 09:45:00,
2013-01-21 02:55:00,14.1,7.9,30.65,ESE,121,0.0,0.0,76,0.00,,,0.00,0,Wunderground v.1.15,2013-01-21 09:55:00,
2013-01-21 03:05:00,14.0,8.1,30.65,ESE,121,0.0,0.0,77,0.00,,,0.00,0,Wunderground v.1.15,2013-01-21 10:05:00,
2013-01-21 03:15:00,13.9,8.0,30.65,ESE,121,0.0,1.0,77,0.00,,,0.00,0,Wunderground v.1.15,2013-01-21 10:15:00,
2013-01-21 03:25:00,14.0,8.1,30.65,ESE,122,0.0,0.0,77,0.00,,,0.00,0,Wunderground v.1.15,2013-01-21 10:25:00,
2013-01-21 03:35:00,14.2,8.6,30.65,ESE,121,0.0,0.0,78,0.00,,,0.00,0,Wunderground v.1.15,2013-01-21 10:35:00,
2013-01-21 03:40:00,14.2,8.6,30.65,ESE,121,0.0,0.0,78,0.00,,,0.00,0,Wunderground v.1.15,2013-01-21 10:40:00,
2013-01-21 03:50:00,14.0,8.4,30.65,ESE,106,0.0,0.0,78,0.00,,,0.00,0,Wunderground v.1.15,2013-01-21 10:50:00,
2013-01-21 03:55:00,13.7,8.1,30.65,NE,36,0.0,0.0,78,0.00,,,0.00,0,Wunderground v.1.15,2013-01-21 10:55:00,
2013-01-21 04:05:00,13.4,7.8,30.66,East,100,0.0,0.0,78,0.00,,,0.00,0,Wunderground v.1.15,2013-01-21 11:05:00,
2013-01-21 04:10:00,13.4,7.8,30.66,East,100,0.0,2.0,78,0.00,,,0.00,0,Wunderground v.1.15,2013-01-21 11:10:00,
2013-01-21 04:20:00,13.3,8.0,30.65,South,190,0.0,2.0,79,0.00,,,0.00,0,Wunderground v.1.15,2013-01-21 11:20:00,
2013-01-21 04:30:00,13.6,8.6,30.65,SSW,212,1.0,2.0,80,0.00,,,0.00,0,Wunderground v.1.15,2013-01-21 11:30:00,
2013-01-21 04:40:00,13.7,8.7,30.66,SSW,212,0.0,2.0,80,0.00,,,0.00,0,Wunderground v.1.15,2013-01-21 11:40:00,
2013-01-21 04:50:00,13.0,7.7,30.66,SSE,158,0.0,2.0,79,0.00,,,0.00,0,Wunderground v.1.15,2013-01-21 11:50:00,
2013-01-21 05:00:00,12.4,7.1,30.67,SSE,152,1.0,1.0,79,0.00,,,0.00,0,Wunderground v.1.15,2013-01-21 12:00:00,
2013-01-21 05:10:00,12.0,6.7,30.67,SSE,153,0.0,2.0,79,0.00,,,0.00,0,Wunderground v.1.15,2013-01-21 12:10:00,
2013-01-21 05:20:00,11.8,6.5,30.67,SSE,152,0.0,2.0,79,0.00,,,0.00,0,Wunderground v.1.15,2013-01-21 12:20:00,
2013-01-21 05:30:00,11.5,6.5,30.67,SSE,153,0.0,2.0,80,0.00,,,0.00,0,Wunderground v.1.15,2013-01-21 12:30:00,
2013-01-21 05:40:00,11.4,6.4,30.67,SSE,152,0.0,2.0,80,0.00,,,0.00,0,Wunderground v.1.15,2013-01-21 12:40:00,
2013-01-21 05:50:00,11.2,6.2,30.67,SSE,153,0.0,2.0,80,0.00,,,0.00,0,Wunderground v.1.15,2013-01-21 12:50:00,
2013-01-21 05:55:00,11.2,6.2,30.67,SSE,153,0.0,2.0,80,0.00,,,0.00,0,Wunderground v.1.15,2013-01-21 12:55:00,
2013-01-21 06:05:00,11.8,6.8,30.67,SW,226,1.0,1.0,80,0.00,,,0.00,0,Wunderground v.1.15,2013-01-21 13:05:00,
2013-01-21 06:15:00,11.3,6.3,30.67,SSW,206,0.0,1.0,80,0.00,,,0.00,0,Wunderground v.1.15,2013-01-21 13:15:00,
2013-01-21 06:25:00,11.0,6.0,30.68,SSE,165,0.0,0.0,80,0.00,,,0.00,0,Wunderground v.1.15,2013-01-21 13:25:00,
2013-01-21 06:35:00,11.0,6.0,30.68,SSE,164,0.0,0.0,80,0.00,,,0.00,0,Wunderground v.1.15,2013-01-21 13:35:00,
2013-01-21 06:40:00,11.0,6.0,30.68,SSE,164,0.0,0.0,80,0.00,,,0.00,0,Wunderground v.1.15,2013-01-21 13:40:00,
2013-01-21 06:45:00,11.1,6.4,30.68,SSE,164,0.0,0.0,81,0.00,,,0.00,0,Wunderground v.1.15,2013-01-21 13:45:00,
2013-01-21 06:55:00,11.4,6.7,30.68,South,172,0.0,3.0,81,0.00,,,0.00,0,Wunderground v.1.15,2013-01-21 13:55:00,
2013-01-21 07:05:00,11.0,6.0,30.68,SE,137,0.0,4.0,80,0.00,,,0.00,0,Wunderground v.1.15,2013-01-21 14:05:00,
2013-01-21 07:15:00,10.9,5.9,30.68,North,359,0.0,4.0,80,0.00,,,0.00,0,Wunderground v.1.15,2013-01-21 14:15:00,
2013-01-21 07:25:00,11.6,6.9,30.68,South,179,1.0,4.0,81,0.00,,,0.00,0,Wunderground v.1.15,2013-01-21 14:25:00,
2013-01-21 07:35:00,10.7,5.7,30.68,South,171,1.0,4.0,80,0.00,,,0.00,7,Wunderground v.1.15,2013-01-21 14:35:00,
2013-01-21 07:40:00,10.7,5.7,30.69,South,177,1.0,1.0,80,0.00,,,0.00,9,Wunderground v.1.15,2013-01-21 14:40:00,
2013-01-21 07:50:00,11.0,6.0,30.69,SE,125,1.0,4.0,80,0.00,,,0.00,12,Wunderground v.1.15,2013-01-21 14:50:00,
2013-01-21 08:00:00,10.8,5.3,30.69,SSE,149,4.0,4.0,78,0.00,,,0.00,14,Wunderground v.1.15,2013-01-21 15:00:00,
2013-01-21 08:05:00,11.0,5.8,30.70,South,181,2.0,4.0,79,0.00,,,0.00,14,Wunderground v.1.15,2013-01-21 15:05:00,
2013-01-21 08:15:00,11.1,6.1,30.70,SE,145,1.0,4.0,80,0.00,,,0.00,16,Wunderground v.1.15,2013-01-21 15:15:00,
2013-01-21 08:25:00,12.1,7.7,30.70,NW,324,2.0,4.0,82,0.00,,,0.00,18,Wunderground v.1.15,2013-01-21 15:25:00,
2013-01-21 08:30:00,13.7,9.5,30.70,ESE,102,2.0,5.0,83,0.00,,,0.00,18,Wunderground v.1.15,2013-01-21 15:30:00,
2013-01-21 08:35:00,14.1,9.1,30.70,SE,131,3.0,5.0,80,0.00,,,0.00,19,Wunderground v.1.15,2013-01-21 15:35:00,
2013-01-21 08:45:00,14.6,9.0,30.70,SE,137,4.0,5.0,78,0.00,,,0.00,21,Wunderground v.1.15,2013-01-21 15:45:00,
2013-01-21 08:55:00,14.5,8.3,30.71,SSE,156,4.0,7.0,76,0.00,,,0.00,21,Wunderground v.1.15,2013-01-21 15:55:00,
2013-01-21 09:00:00,13.4,7.2,30.71,East,91,3.0,5.0,76,0.00,,,0.00,23,Wunderground v.1.15,2013-01-21 16:00:00,
2013-01-21 09:05:00,15.2,10.1,30.71,East,97,3.0,5.0,80,0.00,,,0.00,25,Wunderground v.1.15,2013-01-21 16:05:00,
2013-01-21 09:15:00,16.0,10.1,30.71,ESE,120,3.0,4.0,77,0.00,,,0.00,255,Wunderground v.1.15,2013-01-21 16:15:00,
2013-01-21 09:20:00,16.5,10.3,30.71,ESE,104,3.0,3.0,76,0.00,,,0.00,279,Wunderground v.1.15,2013-01-21 16:20:00,
2013-01-21 09:30:00,17.8,11.2,30.71,ENE,62,4.0,9.0,75,0.00,,,0.00,297,Wunderground v.1.15,2013-01-21 16:30:00,
2013-01-21 09:40:00,18.1,10.9,30.71,East,86,8.0,9.0,73,0.00,,,0.00,320,Wunderground v.1.15,2013-01-21 16:40:00,
2013-01-21 09:45:00,19.1,12.2,30.71,ENE,57,8.0,12.0,74,0.00,,,0.00,332,Wunderground v.1.15,2013-01-21 16:45:00,
2013-01-21 09:50:00,20.1,13.1,30.70,East,96,8.0,8.0,74,0.00,,,0.00,346,Wunderground v.1.15,2013-01-21 16:50:00,
2013-01-21 10:00:00,20.4,12.5,30.71,ENE,57,8.0,12.0,71,0.00,,,0.00,362,Wunderground v.1.15,2013-01-21 17:00:00,
2013-01-21 10:05:00,20.8,12.2,30.71,ENE,61,11.0,12.0,69,0.00,,,0.00,374,Wunderground v.1.15,2013-01-21 17:05:00,
2013-01-21 10:15:00,21.3,11.7,30.70,NE,51,11.0,11.0,66,0.00,,,0.00,399,Wunderground v.1.15,2013-01-21 17:15:00,
2013-01-21 10:20:00,22.4,13.1,30.70,NE,53,10.0,12.0,67,0.00,,,0.00,411,Wunderground v.1.15,2013-01-21 17:20:00,
2013-01-21 10:30:00,22.5,13.9,30.70,East,97,9.0,9.0,69,0.00,,,0.00,420,Wunderground v.1.15,2013-01-21 17:30:00,
2013-01-21 10:35:00,22.6,12.6,30.70,East,85,6.0,9.0,65,0.00,,,0.00,429,Wunderground v.1.15,2013-01-21 17:35:00,
2013-01-21 10:40:00,23.5,12.7,30.69,East,90,4.0,4.0,63,0.00,,,0.00,439,Wunderground v.1.15,2013-01-21 17:40:00,
2013-01-21 10:45:00,23.9,13.1,30.69,NNE,27,3.0,8.0,63,0.00,,,0.00,446,Wunderground v.1.15,2013-01-21 17:45:00,
2013-01-21 10:55:00,25.2,14.4,30.68,ENE,58,6.0,9.0,63,0.00,,,0.00,461,Wunderground v.1.15,2013-01-21 17:55:00,
2013-01-21 11:00:00,25.6,15.5,30.68,East,85,7.0,8.0,65,0.00,,,0.00,468,Wunderground v.1.15,2013-01-21 18:00:00,
2013-01-21 11:10:00,26.0,14.8,30.68,East,96,5.0,8.0,62,0.00,,,0.00,480,Wunderground v.1.15,2013-01-21 18:10:00,
2013-01-21 11:15:00,26.5,15.2,30.68,ENE,57,5.0,8.0,62,0.00,,,0.00,487,Wunderground v.1.15,2013-01-21 18:15:00,
2013-01-21 11:20:00,27.3,15.6,30.67,NE,39,6.0,8.0,61,0.00,,,0.00,492,Wunderground v.1.15,2013-01-21 18:20:00,
2013-01-21 11:30:00,28.0,15.5,30.66,NE,49,8.0,8.0,59,0.00,,,0.00,501,Wunderground v.1.15,2013-01-21 18:30:00,
2013-01-21 11:35:00,28.0,15.1,30.66,ENE,70,7.0,8.0,58,0.00,,,0.00,504,Wunderground v.1.15,2013-01-21 18:35:00,
2013-01-21 11:45:00,29.3,15.5,30.65,ENE,65,7.0,9.0,56,0.00,,,0.00,512,Wunderground v.1.15,2013-01-21 18:45:00,
2013-01-21 11:50:00,29.8,14.7,30.64,ENE,59,8.0,8.0,53,0.00,,,0.00,517,Wunderground v.1.15,2013-01-21 18:50:00,
2013-01-21 12:00:00,30.7,16.4,30.63,NE,43,8.0,8.0,55,0.00,,,0.00,522,Wunderground v.1.15,2013-01-21 19:00:00,
2013-01-21 12:05:00,30.7,16.4,30.63,ENE,62,7.0,10.0,55,0.00,,,0.00,524,Wunderground v.1.15,2013-01-21 19:05:00,
2013-01-21 12:15:00,31.7,14.7,30.62,ENE,62,9.0,9.0,49,0.00,,,0.00,526,Wunderground v.1.15,2013-01-21 19:15:00,
2013-01-21 12:20:00,32.0,15.9,30.62,NE,45,8.0,8.0,51,0.00,,,0.00,527,Wunderground v.1.15,2013-01-21 19:20:00,
2013-01-21 12:25:00,32.4,14.9,30.61,ENE,59,8.0,10.0,48,0.00,,,0.00,527,Wunderground v.1.15,2013-01-21 19:25:00,
2013-01-21 12:35:00,33.1,15.5,30.60,NE,55,8.0,8.0,48,0.00,,,0.00,527,Wunderground v.1.15,2013-01-21 19:35:00,
2013-01-21 12:40:00,33.3,16.2,30.60,ENE,66,8.0,9.0,49,0.00,,,0.00,527,Wunderground v.1.15,2013-01-21 19:40:00,
2013-01-21 12:45:00,33.8,16.2,30.60,ENE,61,8.0,10.0,48,0.00,,,0.00,526,Wunderground v.1.15,2013-01-21 19:45:00,
2013-01-21 12:55:00,34.6,16.4,30.59,ENE,69,7.0,8.0,47,0.00,,,0.00,522,Wunderground v.1.15,2013-01-21 19:55:00,
2013-01-21 13:05:00,35.3,16.0,30.58,ENE,63,8.0,10.0,45,0.00,,,0.00,519,Wunderground v.1.15,2013-01-21 20:05:00,
2013-01-21 13:15:00,36.1,17.8,30.58,ENE,57,7.0,10.0,47,0.00,,,0.00,512,Wunderground v.1.15,2013-01-21 20:15:00,
2013-01-21 13:20:00,36.6,17.2,30.57,ENE,72,7.0,7.0,45,0.00,,,0.00,508,Wunderground v.1.15,2013-01-21 20:20:00,
2013-01-21 13:25:00,36.7,15.7,30.57,ENE,58,7.0,10.0,42,0.00,,,0.00,504,Wunderground v.1.15,2013-01-21 20:25:00,
2013-01-21 13:35:00,36.5,18.2,30.56,ENE,67,5.0,10.0,47,0.00,,,0.00,494,Wunderground v.1.15,2013-01-21 20:35:00,
2013-01-21 13:40:00,36.7,18.8,30.56,ENE,67,5.0,5.0,48,0.00,,,0.00,490,Wunderground v.1.15,2013-01-21 20:40:00,
2013-01-21 13:50:00,37.8,17.8,30.55,NE,53,4.0,10.0,44,0.00,,,0.00,480,Wunderground v.1.15,2013-01-21 20:50:00,
2013-01-21 13:55:00,38.4,19.4,30.55,ENE,67,4.0,10.0,46,0.00,,,0.00,471,Wunderground v.1.15,2013-01-21 20:55:00,
2013-01-21 14:00:00,38.9,18.3,30.54,NE,56,4.0,4.0,43,0.00,,,0.00,466,Wunderground v.1.15,2013-01-21 21:00:00,
2013-01-21 14:05:00,38.6,18.5,30.54,ENE,60,3.0,10.0,44,0.00,,,0.00,457,Wunderground v.1.15,2013-01-21 21:05:00,
2013-01-21 14:10:00,38.5,17.9,30.53,ENE,62,3.0,3.0,43,0.00,,,0.00,450,Wunderground v.1.15,2013-01-21 21:10:00,
2013-01-21 14:20:00,39.7,20.1,30.53,ENE,62,2.0,2.0,45,0.00,,,0.00,434,Wunderground v.1.15,2013-01-21 21:20:00,
2013-01-21 14:25:00,40.2,21.0,30.53,ENE,62,2.0,3.0,46,0.00,,,0.00,427,Wunderground v.1.15,2013-01-21 21:25:00,
2013-01-21 14:35:00,40.1,18.3,30.52,ENE,60,3.0,10.0,41,0.00,,,0.00,406,Wunderground v.1.15,2013-01-21 21:35:00,
2013-01-21 14:45:00,40.4,20.2,30.52,ENE,60,2.0,10.0,44,0.00,,,0.00,388,Wunderground v.1.15,2013-01-21 21:45:00,
2013-01-21 14:55:00,40.7,21.0,30.52,ENE,61,2.0,10.0,45,0.00,,,0.00,367,Wunderground v.1.15,2013-01-21 21:55:00,
2013-01-21 15:05:00,40.0,20.3,30.52,ENE,64,3.0,10.0,45,0.00,,,0.00,348,Wunderground v.1.15,2013-01-21 22:05:00,
2013-01-21 15:15:00,39.7,17.9,30.51,ENE,62,4.0,5.0,41,0.00,,,0.00,329,Wunderground v.1.15,2013-01-21 22:15:00,
2013-01-21 15:25:00,40.0,22.4,30.51,ENE,62,3.0,4.0,49,0.00,,,0.00,306,Wunderground v.1.15,2013-01-21 22:25:00,
2013-01-21 15:30:00,40.6,21.4,30.51,ENE,62,3.0,4.0,46,0.00,,,0.00,292,Wunderground v.1.15,2013-01-21 22:30:00,
2013-01-21 15:35:00,40.1,22.4,30.51,ENE,73,3.0,4.0,49,0.00,,,0.00,278,Wunderground v.1.15,2013-01-21 22:35:00,
2013-01-21 15:40:00,40.8,22.6,30.51,ENE,73,3.0,3.0,48,0.00,,,0.00,260,Wunderground v.1.15,2013-01-21 22:40:00,
2013-01-21 15:50:00,40.2,23.5,30.51,ENE,74,2.0,3.0,51,0.00,,,0.00,227,Wunderground v.1.15,2013-01-21 22:50:00,
2013-01-21 16:00:00,39.1,20.5,30.51,ENE,75,2.0,2.0,47,0.00,,,0.00,65,Wunderground v.1.15,2013-01-21 23:00:00,
2013-01-21 16:05:00,38.7,21.2,30.51,ENE,77,3.0,3.0,49,0.00,,,0.00,23,Wunderground v.1.15,2013-01-21 23:05:00,
2013-01-21 16:15:00,38.4,23.2,30.51,ENE,76,1.0,5.0,54,0.00,,,0.00,21,Wunderground v.1.15,2013-01-21 23:15:00,
2013-01-21 16:20:00,37.5,22.3,30.51,ENE,76,1.0,5.0,54,0.00,,,0.00,19,Wunderground v.1.15,2013-01-21 23:20:00,
2013-01-21 16:30:00,36.1,20.2,30.51,ENE,67,2.0,2.0,52,0.00,,,0.00,16,Wunderground v.1.15,2013-01-21 23:30:00,
2013-01-21 16:40:00,35.2,20.2,30.52,ENE,65,2.0,5.0,54,0.00,,,0.00,14,Wunderground v.1.15,2013-01-21 23:40:00,
2013-01-21 16:45:00,35.2,20.6,30.52,ENE,67,3.0,5.0,55,0.00,,,0.00,12,Wunderground v.1.15,2013-01-21 23:45:00,
2013-01-21 16:55:00,34.7,19.3,30.52,ENE,77,2.0,5.0,53,0.00,,,0.00,11,Wunderground v.1.15,2013-01-21 23:55:00,
2013-01-21 17:05:00,34.4,21.5,30.52,ENE,76,1.0,2.0,59,0.00,,,0.00,7,Wunderground v.1.15,2013-01-22 00:05:00,
2013-01-21 17:10:00,33.5,21.9,30.53,ENE,59,2.0,5.0,62,0.00,,,0.00,7,Wunderground v.1.15,2013-01-22 00:10:00,
2013-01-21 17:15:00,32.8,21.6,30.53,ENE,57,3.0,5.0,63,0.00,,,0.00,5,Wunderground v.1.15,2013-01-22 00:15:00,